Airfield :







YOU CAN JOIN US ON...

 
LOGIN :

Register | Disclaimer

   EN    FR    IT 

 









Legend :    VFR   Marginal VFR   IFR   Intensive IFR   Very Intensive IFR
Visi :
Ceiling :
>= 8 km
>= 3000ft
5 to 8 km
1000 to 3000 ft
1500m to 5 km
500 to 1000 ft
800 to 1500m
200 to 500 ft
< 800m
< 200 ft
Symbols :   Thunderstorms  Fog  Heavy snow  Heavy precipitations  Wind > 20 kt






- Airport Elevation : 626 ft


KCAR - Caribou Municipal

CURRENT METAR :
  • 281854Z AUTO 18007KT 10SM FEW100 01/M07 A2995 RMK AO2 SLP154 T00111067

EXPIRED METARs :
  • 281754Z AUTO 19008KT 10SM FEW050 SCT100 01/M07 A2998 RMK AO2 SLP162 T00111072 10011 21022 56031
  • 281654Z AUTO 19008KT 10SM BKN100 00/M08 A3002 RMK AO2 SLP175 T00001078

TAF KCAR
Valid from the 28 at 18:00 until the 29 at 18:00 UTC


281734Z 2818/2918 18008KT P6SM BKN060
FM282300 18006KT P6SM -SN OVC025
FM290300 21006KT P6SM BKN015
FM290600 22006KT P6SM SCT025
FM291600 29010G20KT P6SM SCT070
KZBW FIR / North America



MET'MAP, your aeronautical weather chart ! - Copyright ORBIFLY December 2007 - Disclaimer

ORBIFLY MET'MAP TEAM :

Programming & Development : Alexandra Zaïnal
Concept & original design : Baudouin d'Aumeries
Assistance for programming : Marc-Olivier Méhu
Technical & hardware support : Manuel Goepfert

Contact : metmap@orbifly.com




SOURCES & CREDITS :

   NOAA